Time;durP1;ratioP1;P1;durP2;ratioP2;P2;SDS_P1;SDS_P2;PMS_P1;PMS_P2;Temp;Humidity;BMP_temperature;BMP_pressure;BME280_temperature;BME280_humidity;BME280_pressure;Samples;Min_cycle;Max_cycle;Signal;HPM_P1;HPM_P2
2023/01/04 00:01:27;;;;;;;18.98;2.97;;;;;;;;;;5053230;28;20036;-35
2023/01/04 00:03:53;;;;;;;17.73;3.20;;;;;;;;;;5053181;28;20033;-35
2023/01/04 00:06:20;;;;;;;17.08;2.95;;;;;;;;;;5053117;28;20020;-35
2023/01/04 00:08:48;;;;;;;23.17;3.40;;;;;;;;;;5053131;28;20021;-35
2023/01/04 00:11:19;;;;;;;28.02;3.92;;;;;;;;;;5053057;28;20032;-35
2023/01/04 00:13:47;;;;;;;16.93;3.60;;;;;;;;;;5052868;28;20035;-35
2023/01/04 00:16:15;;;;;;;27.95;3.75;;;;;;;;;;5051928;28;20053;-35
2023/01/04 00:18:42;;;;;;;27.27;4.88;;;;;;;;;;5052073;28;20041;-35
2023/01/04 00:21:17;;;;;;;39.65;5.40;;;;;;;;;;5041470;28;20037;-35
2023/01/04 00:23:45;;;;;;;34.08;4.65;;;;;;;;;;5045886;28;20025;-36
2023/01/04 00:26:13;;;;;;;60.90;7.43;;;;;;;;;;5043351;28;20124;-36
2023/01/04 00:28:41;;;;;;;53.30;6.55;;;;;;;;;;5050083;28;20052;-34
2023/01/04 00:31:09;;;;;;;34.58;5.80;;;;;;;;;;5051634;28;20025;-35
2023/01/04 00:33:36;;;;;;;38.90;5.90;;;;;;;;;;5051429;28;20029;-34
2023/01/04 00:36:06;;;;;;;53.00;7.00;;;;;;;;;;5051693;28;20029;-35
2023/01/04 00:38:33;;;;;;;56.30;8.63;;;;;;;;;;5051644;28;20052;-35
2023/01/04 00:41:01;;;;;;;52.17;6.45;;;;;;;;;;5051619;28;20035;-35
2023/01/04 00:43:28;;;;;;;50.35;6.90;;;;;;;;;;5051484;28;20029;-35
2023/01/04 00:45:55;;;;;;;43.80;6.75;;;;;;;;;;5051608;28;20060;-35
2023/01/04 00:48:22;;;;;;;55.97;8.50;;;;;;;;;;5051534;28;20025;-35
2023/01/04 00:50:50;;;;;;;59.75;7.88;;;;;;;;;;5051553;28;20025;-35
2023/01/04 00:53:17;;;;;;;47.58;8.20;;;;;;;;;;5033528;28;20517;-34
2023/01/04 00:55:45;;;;;;;52.75;7.75;;;;;;;;;;5051288;28;20025;-34
2023/01/04 00:58:12;;;;;;;56.45;7.97;;;;;;;;;;5051370;28;20033;-34
2023/01/04 01:00:39;;;;;;;66.13;8.77;;;;;;;;;;5051382;28;20033;-34
2023/01/04 01:03:06;;;;;;;71.35;10.55;;;;;;;;;;5051281;28;20517;-35
2023/01/04 01:05:34;;;;;;;110.55;14.05;;;;;;;;;;5051320;28;20158;-35
2023/01/04 01:08:23;;;;;;;113.32;15.65;;;;;;;;;;5051177;28;20036;-35
2023/01/04 01:10:48;;;;;;;111.82;16.45;;;;;;;;;;5051139;28;20040;-35
2023/01/04 01:13:15;;;;;;;113.18;14.82;;;;;;;;;;5051053;28;20033;-35
2023/01/04 01:15:42;;;;;;;114.50;15.68;;;;;;;;;;4972034;28;2274741;-35
2023/01/04 01:18:09;;;;;;;111.28;15.27;;;;;;;;;;5051927;28;20025;-35
2023/01/04 01:20:40;;;;;;;100.15;14.77;;;;;;;;;;5051884;28;20691;-34
2023/01/04 01:23:07;;;;;;;117.03;15.40;;;;;;;;;;5051845;28;20025;-34
2023/01/04 01:25:34;;;;;;;112.40;13.40;;;;;;;;;;5051801;28;20028;-35
2023/01/04 01:28:01;;;;;;;72.38;12.10;;;;;;;;;;5051845;28;20479;-35
2023/01/04 01:30:28;;;;;;;113.85;14.35;;;;;;;;;;5051749;28;20029;-35
2023/01/04 01:32:55;;;;;;;113.28;13.70;;;;;;;;;;5051636;28;20052;-35
2023/01/04 01:35:21;;;;;;;97.80;14.30;;;;;;;;;;5051690;28;20399;-34
2023/01/04 01:37:49;;;;;;;114.15;14.68;;;;;;;;;;5051790;28;20044;-34
2023/01/04 01:40:15;;;;;;;96.95;15.30;;;;;;;;;;5051735;28;20025;-35
2023/01/04 01:42:42;;;;;;;108.68;16.10;;;;;;;;;;5054987;28;20025;-35
2023/01/04 01:45:27;;;;;;;112.45;16.15;;;;;;;;;;5055671;28;20041;-35
2023/01/04 01:47:57;;;;;;;105.15;14.27;;;;;;;;;;5055705;28;20025;-34
2023/01/04 01:50:29;;;;;;;116.88;15.73;;;;;;;;;;5055687;28;20537;-34
2023/01/04 01:52:58;;;;;;;109.43;16.30;;;;;;;;;;5055569;28;20025;-34
2023/01/04 01:55:25;;;;;;;111.78;15.65;;;;;;;;;;5055515;28;20094;-35
2023/01/04 01:57:53;;;;;;;96.80;14.07;;;;;;;;;;5055519;28;20029;-34
2023/01/04 02:00:20;;;;;;;93.60;14.30;;;;;;;;;;5055476;28;20033;-34
2023/01/04 02:03:00;;;;;;;89.22;13.70;;;;;;;;;;5055295;28;20029;-34
2023/01/04 02:05:27;;;;;;;98.60;13.45;;;;;;;;;;5055400;28;20029;-35
2023/01/04 02:07:54;;;;;;;104.20;14.55;;;;;;;;;;5055291;28;20029;-34
2023/01/04 02:10:21;;;;;;;86.15;12.77;;;;;;;;;;5055306;28;20017;-34
2023/01/04 02:12:51;;;;;;;72.38;11.93;;;;;;;;;;5055155;28;20104;-34
2023/01/04 02:15:19;;;;;;;85.80;12.43;;;;;;;;;;5055000;28;20055;-34
2023/01/04 02:17:54;;;;;;;86.97;12.73;;;;;;;;;;5055231;28;20095;-35
2023/01/04 02:20:37;;;;;;;82.75;12.77;;;;;;;;;;5055204;28;20031;-34
2023/01/04 02:23:16;;;;;;;64.20;10.75;;;;;;;;;;5055006;28;20044;-35
2023/01/04 02:25:43;;;;;;;63.85;10.45;;;;;;;;;;5055361;28;20040;-35
2023/01/04 02:28:16;;;;;;;66.32;12.48;;;;;;;;;;5054970;28;20486;-35
2023/01/04 02:30:43;;;;;;;75.60;13.20;;;;;;;;;;5054872;28;20087;-35
2023/01/04 02:33:17;;;;;;;87.80;14.35;;;;;;;;;;5054744;28;20033;-35
2023/01/04 02:35:51;;;;;;;68.22;13.82;;;;;;;;;;5054875;28;20383;-34
2023/01/04 02:38:37;;;;;;;69.28;12.38;;;;;;;;;;5041221;28;20088;-35
2023/01/04 02:41:24;;;;;;;79.78;13.77;;;;;;;;;;5034821;28;20029;-34
2023/01/04 02:46:46;;;;;;;60.22;11.95;;;;;;;;;;5034683;28;20053;-34
2023/01/04 02:51:59;;;;;;;63.88;11.75;;;;;;;;;;5034491;28;20449;-35
2023/01/04 02:54:31;;;;;;;53.92;10.50;;;;;;;;;;5034355;28;20086;-35
2023/01/04 02:57:16;;;;;;;57.95;10.98;;;;;;;;;;5034853;28;20037;-35
2023/01/04 03:00:01;;;;;;;51.88;10.07;;;;;;;;;;5034479;28;20064;-35
2023/01/04 03:08:29;;;;;;;52.08;10.02;;;;;;;;;;5034385;28;20036;-35
2023/01/04 03:11:01;;;;;;;46.67;8.63;;;;;;;;;;5034302;28;20514;-35
2023/01/04 03:13:27;;;;;;;;;;;;;;;;;;5034497;28;20038;-35
2023/01/04 03:15:58;;;;;;;41.85;8.20;;;;;;;;;;5034123;28;19925;-35
2023/01/04 03:18:33;;;;;;;39.75;8.63;;;;;;;;;;5034222;28;20037;-34
2023/01/04 03:21:02;;;;;;;46.45;8.43;;;;;;;;;;5034160;28;20095;-35
2023/01/04 03:37:35;;;;;;;57.05;9.50;;;;;;;;;;5033824;28;20426;-35
2023/01/04 03:48:36;;;;;;;44.10;8.13;;;;;;;;;;5033879;28;20087;-34
2023/01/04 03:51:15;;;;;;;39.00;7.32;;;;;;;;;;5033531;28;20038;-34
2023/01/04 03:53:54;;;;;;;42.80;6.95;;;;;;;;;;5033323;28;20040;-35
2023/01/04 03:56:22;;;;;;;38.15;7.03;;;;;;;;;;5033443;28;20539;-34
2023/01/04 03:58:50;;;;;;;33.70;6.30;;;;;;;;;;5033446;28;20021;-34
2023/01/04 04:01:21;;;;;;;29.65;6.10;;;;;;;;;;5033349;28;20025;-34
2023/01/04 04:09:18;;;;;;;32.95;6.20;;;;;;;;;;5033444;28;20052;-35
2023/01/04 04:11:45;;;;;;;38.25;5.82;;;;;;;;;;5033190;28;20049;-35
2023/01/04 04:14:12;;;;;;;39.38;6.10;;;;;;;;;;5032855;28;20166;-34
2023/01/04 04:16:39;;;;;;;27.63;6.50;;;;;;;;;;5033042;28;20080;-34
2023/01/04 04:19:06;;;;;;;30.17;5.55;;;;;;;;;;5031806;28;20483;-34
2023/01/04 04:21:33;;;;;;;31.10;5.63;;;;;;;;;;5032967;28;20086;-34
2023/01/04 04:24:00;;;;;;;30.17;5.82;;;;;;;;;;5032888;28;20064;-35
2023/01/04 04:26:27;;;;;;;28.63;6.00;;;;;;;;;;5031593;28;20030;-34
2023/01/04 04:28:54;;;;;;;37.25;6.20;;;;;;;;;;5032804;28;20036;-34
2023/01/04 04:31:21;;;;;;;22.50;4.72;;;;;;;;;;5032817;28;20503;-34
2023/01/04 04:33:48;;;;;;;31.20;5.38;;;;;;;;;;5032652;28;20037;-34
2023/01/04 04:36:15;;;;;;;26.55;5.10;;;;;;;;;;5032718;28;20045;-34
2023/01/04 04:38:42;;;;;;;31.95;5.10;;;;;;;;;;5034484;28;20040;-34
2023/01/04 04:43:58;;;;;;;27.77;5.35;;;;;;;;;;5044323;28;20052;-35
2023/01/04 04:46:25;;;;;;;33.63;4.80;;;;;;;;;;5050942;28;20056;-34
2023/01/04 04:48:52;;;;;;;31.98;5.03;;;;;;;;;;5047487;28;20040;-33
2023/01/04 04:51:19;;;;;;;38.53;5.53;;;;;;;;;;5035830;28;20056;-33
2023/01/04 04:53:47;;;;;;;37.00;5.68;;;;;;;;;;5059045;28;20094;-33
2023/01/04 04:56:14;;;;;;;25.85;4.70;;;;;;;;;;5060905;28;20110;-33
2023/01/04 04:58:41;;;;;;;30.83;4.63;;;;;;;;;;5055729;28;20025;-33
2023/01/04 05:01:08;;;;;;;29.00;4.60;;;;;;;;;;5062387;28;20048;-33
2023/01/04 05:03:35;;;;;;;29.65;4.03;;;;;;;;;;5066348;28;20422;-33
2023/01/04 05:06:02;;;;;;;33.67;4.10;;;;;;;;;;5060196;28;20051;-33
2023/01/04 05:08:29;;;;;;;27.33;3.95;;;;;;;;;;5048571;28;20058;-33
2023/01/04 05:10:56;;;;;;;26.42;3.38;;;;;;;;;;5039739;28;20018;-33
2023/01/04 05:13:23;;;;;;;24.38;3.78;;;;;;;;;;5045038;28;20479;-33
2023/01/04 05:15:51;;;;;;;14.48;3.03;;;;;;;;;;5036413;28;20045;-33
2023/01/04 05:18:19;;;;;;;19.42;3.65;;;;;;;;;;5032880;28;20147;-33
2023/01/04 05:20:47;;;;;;;23.73;3.63;;;;;;;;;;5035312;28;20025;-33
2023/01/04 05:23:15;;;;;;;22.02;2.90;;;;;;;;;;5032859;28;20053;-33
2023/01/04 05:25:42;;;;;;;16.27;3.20;;;;;;;;;;5047065;28;20422;-33
2023/01/04 05:28:10;;;;;;;17.35;2.80;;;;;;;;;;5040679;28;20121;-33
2023/01/04 05:30:49;;;;;;;12.95;2.40;;;;;;;;;;5040265;28;20020;-33
2023/01/04 05:33:27;;;;;;;16.15;2.80;;;;;;;;;;5049851;28;20113;-33
2023/01/04 05:35:54;;;;;;;17.92;3.22;;;;;;;;;;5049546;28;20038;-33
2023/01/04 05:38:22;;;;;;;11.38;2.30;;;;;;;;;;5051460;28;20025;-33
2023/01/04 05:40:49;;;;;;;8.95;2.35;;;;;;;;;;5051623;28;20056;-33
2023/01/04 05:43:17;;;;;;;10.50;2.10;;;;;;;;;;5034523;28;20036;-33
2023/01/04 05:45:44;;;;;;;12.70;2.10;;;;;;;;;;5031683;28;20038;-33
2023/01/04 05:48:11;;;;;;;8.60;2.17;;;;;;;;;;5031644;28;20034;-33
2023/01/04 05:50:39;;;;;;;12.75;2.38;;;;;;;;;;5031675;28;20447;-33
2023/01/04 05:53:06;;;;;;;9.50;2.25;;;;;;;;;;5031596;28;20062;-33
2023/01/04 05:55:33;;;;;;;8.65;1.90;;;;;;;;;;5031410;28;20087;-33
2023/01/04 05:58:00;;;;;;;8.20;1.80;;;;;;;;;;5044114;28;20037;-33
2023/01/04 06:00:28;;;;;;;9.80;2.03;;;;;;;;;;5051734;28;20382;-33
2023/01/04 06:02:55;;;;;;;8.57;1.73;;;;;;;;;;5048948;28;20037;-33
2023/01/04 06:05:24;;;;;;;10.98;1.80;;;;;;;;;;5051304;28;20037;-34
2023/01/04 06:07:51;;;;;;;7.10;1.48;;;;;;;;;;5051506;28;20112;-33
2023/01/04 06:10:18;;;;;;;7.40;1.27;;;;;;;;;;5051244;28;20581;-33
2023/01/04 06:12:46;;;;;;;6.40;1.23;;;;;;;;;;5048879;28;20029;-33
2023/01/04 06:15:13;;;;;;;7.45;1.67;;;;;;;;;;5033217;28;20076;-33
2023/01/04 06:17:40;;;;;;;5.15;1.30;;;;;;;;;;5051427;28;20060;-33
2023/01/04 06:20:08;;;;;;;6.40;1.70;;;;;;;;;;5047492;28;20037;-32
2023/01/04 06:22:35;;;;;;;5.60;1.48;;;;;;;;;;5051106;28;20025;-32
2023/01/04 06:25:02;;;;;;;4.75;1.10;;;;;;;;;;5051286;28;20033;-32
2023/01/04 06:27:29;;;;;;;5.97;1.38;;;;;;;;;;5046691;28;20047;-33
2023/01/04 06:29:56;;;;;;;5.03;1.30;;;;;;;;;;5055050;28;20025;-32
2023/01/04 06:32:23;;;;;;;4.20;1.30;;;;;;;;;;5054797;28;20021;-33
2023/01/04 06:34:50;;;;;;;4.15;1.00;;;;;;;;;;5054881;28;20064;-33
2023/01/04 06:37:17;;;;;;;5.40;1.15;;;;;;;;;;5054909;28;20048;-33
2023/01/04 06:39:44;;;;;;;5.90;1.40;;;;;;;;;;5054838;28;20020;-32
2023/01/04 06:42:43;;;;;;;4.30;0.85;;;;;;;;;;5042949;28;20444;-33
2023/01/04 06:44:57;;;;;;;3.72;0.90;;;;;;;;;;5054540;28;20091;-33
2023/01/04 06:47:24;;;;;;;2.88;0.82;;;;;;;;;;5054539;28;20029;-33
2023/01/04 06:49:51;;;;;;;2.38;0.70;;;;;;;;;;5053288;28;20079;-32
2023/01/04 06:52:18;;;;;;;4.88;1.00;;;;;;;;;;5054442;28;20036;-33
2023/01/04 06:54:45;;;;;;;3.40;1.05;;;;;;;;;;5054473;28;20052;-33
2023/01/04 06:57:12;;;;;;;6.07;1.02;;;;;;;;;;5053625;28;20043;-33
2023/01/04 06:59:39;;;;;;;4.07;0.88;;;;;;;;;;5054308;28;20029;-33
2023/01/04 07:02:06;;;;;;;5.88;0.70;;;;;;;;;;5054312;28;20032;-33
2023/01/04 07:04:33;;;;;;;3.08;0.80;;;;;;;;;;5054294;28;20071;-33
2023/01/04 07:07:00;;;;;;;2.08;0.80;;;;;;;;;;5054299;28;20029;-33
2023/01/04 07:09:27;;;;;;;4.53;0.80;;;;;;;;;;5054172;28;20025;-33
2023/01/04 07:11:54;;;;;;;3.60;0.80;;;;;;;;;;5052624;28;20029;-33
2023/01/04 07:14:21;;;;;;;3.03;0.70;;;;;;;;;;5053808;28;20048;-33
2023/01/04 07:16:48;;;;;;;4.38;0.73;;;;;;;;;;5054089;28;20029;-33
2023/01/04 07:19:15;;;;;;;2.30;0.85;;;;;;;;;;5054069;28;20107;-33
2023/01/04 07:21:42;;;;;;;3.05;0.70;;;;;;;;;;5054020;28;20487;-33
2023/01/04 07:24:09;;;;;;;2.38;0.70;;;;;;;;;;5037370;28;20030;-32
2023/01/04 07:26:36;;;;;;;3.55;0.60;;;;;;;;;;5033997;28;20033;-32
2023/01/04 07:29:18;;;;;;;3.47;0.90;;;;;;;;;;5033836;28;20026;-33
2023/01/04 07:31:48;;;;;;;1.67;0.57;;;;;;;;;;5016130;28;20116;-33
2023/01/04 07:34:16;;;;;;;7.13;0.60;;;;;;;;;;5033751;28;20084;-33
2023/01/04 07:36:43;;;;;;;2.67;0.80;;;;;;;;;;5033753;28;20500;-33
2023/01/04 07:39:11;;;;;;;6.38;0.70;;;;;;;;;;5032589;28;20022;-32
2023/01/04 07:41:39;;;;;;;2.30;0.50;;;;;;;;;;5033712;28;20025;-33
2023/01/04 07:44:06;;;;;;;2.92;0.60;;;;;;;;;;5033730;28;20037;-32
2023/01/04 07:46:34;;;;;;;2.50;0.60;;;;;;;;;;5033648;28;20106;-33
2023/01/04 07:49:01;;;;;;;4.38;0.60;;;;;;;;;;5015699;28;20057;-33
2023/01/04 07:51:28;;;;;;;2.75;0.65;;;;;;;;;;5035050;28;20022;-33
2023/01/04 07:53:54;;;;;;;2.25;0.50;;;;;;;;;;5053328;28;20390;-32
2023/01/04 07:56:21;;;;;;;4.38;0.80;;;;;;;;;;5053417;28;20485;-33
2023/01/04 07:58:48;;;;;;;2.40;0.40;;;;;;;;;;5053492;28;20425;-33
2023/01/04 08:01:16;;;;;;;3.47;0.60;;;;;;;;;;5053329;28;20505;-32
2023/01/04 08:03:45;;;;;;;4.00;0.50;;;;;;;;;;5053079;28;20024;-33
2023/01/04 08:06:13;;;;;;;1.23;0.45;;;;;;;;;;5047308;28;20036;-33
2023/01/04 08:08:40;;;;;;;2.50;0.50;;;;;;;;;;5033222;28;20104;-33
2023/01/04 08:11:11;;;;;;;2.72;0.60;;;;;;;;;;5033253;28;20060;-33
2023/01/04 08:13:38;;;;;;;1.70;0.40;;;;;;;;;;5032921;28;20124;-33
2023/01/04 08:16:05;;;;;;;1.02;0.50;;;;;;;;;;5032863;28;20097;-33
2023/01/04 08:18:32;;;;;;;4.10;0.50;;;;;;;;;;5033088;28;20080;-33
2023/01/04 08:21:06;;;;;;;1.30;0.40;;;;;;;;;;5033027;28;20482;-33
2023/01/04 08:23:34;;;;;;;3.08;0.45;;;;;;;;;;5033018;28;20105;-32
2023/01/04 08:26:05;;;;;;;1.30;0.52;;;;;;;;;;5033034;28;20034;-33
2023/01/04 08:28:32;;;;;;;2.67;0.40;;;;;;;;;;5032779;28;20040;-33
2023/01/04 08:30:59;;;;;;;0.40;0.22;;;;;;;;;;5032723;28;20022;-33
2023/01/04 08:33:26;;;;;;;4.07;0.50;;;;;;;;;;5032650;28;20026;-33
2023/01/04 08:35:53;;;;;;;1.70;0.50;;;;;;;;;;5032730;28;20112;-32
2023/01/04 08:38:20;;;;;;;1.13;0.30;;;;;;;;;;5032536;28;20030;-33
2023/01/04 08:40:47;;;;;;;3.72;0.65;;;;;;;;;;5038609;28;20028;-32
2023/01/04 08:43:14;;;;;;;3.67;0.40;;;;;;;;;;5052331;28;20028;-33
2023/01/04 08:45:41;;;;;;;2.90;0.45;;;;;;;;;;5052477;28;20122;-32
2023/01/04 08:48:07;;;;;;;2.83;0.50;;;;;;;;;;5052362;28;20024;-33
2023/01/04 08:50:34;;;;;;;5.60;0.85;;;;;;;;;;5052027;28;20029;-33
2023/01/04 08:53:01;;;;;;;2.88;0.52;;;;;;;;;;5052107;28;20029;-32
2023/01/04 08:55:28;;;;;;;3.53;0.50;;;;;;;;;;5044802;28;20044;-33
2023/01/04 08:57:55;;;;;;;3.72;0.45;;;;;;;;;;5032307;28;20422;-33
2023/01/04 09:00:22;;;;;;;2.60;0.50;;;;;;;;;;5032305;28;20032;-33
2023/01/04 09:02:49;;;;;;;0.47;0.30;;;;;;;;;;5032207;28;20060;-33
2023/01/04 09:05:16;;;;;;;5.00;0.60;;;;;;;;;;5032275;28;20116;-32
2023/01/04 09:07:43;;;;;;;4.47;0.65;;;;;;;;;;5032133;28;20049;-33
2023/01/04 09:10:11;;;;;;;2.45;0.77;;;;;;;;;;5032190;28;20108;-32
2023/01/04 09:12:38;;;;;;;3.10;0.68;;;;;;;;;;5032069;28;20025;-33
2023/01/04 09:15:05;;;;;;;6.03;0.70;;;;;;;;;;5031734;28;20124;-33
2023/01/04 09:17:32;;;;;;;3.75;0.50;;;;;;;;;;5046941;28;20037;-33
2023/01/04 09:19:59;;;;;;;7.25;0.60;;;;;;;;;;5051891;28;20533;-33
2023/01/04 09:22:26;;;;;;;11.70;0.77;;;;;;;;;;5051832;28;20092;-33
2023/01/04 09:24:53;;;;;;;5.90;0.85;;;;;;;;;;5051839;28;20036;-33
2023/01/04 09:27:19;;;;;;;8.25;0.80;;;;;;;;;;5051872;28;20033;-33
2023/01/04 09:29:46;;;;;;;5.43;0.85;;;;;;;;;;5051814;28;20029;-33
2023/01/04 09:32:13;;;;;;;9.35;1.17;;;;;;;;;;5037321;28;20029;-33
2023/01/04 09:34:41;;;;;;;5.07;0.80;;;;;;;;;;5038953;28;20069;-33
2023/01/04 09:37:07;;;;;;;7.65;1.10;;;;;;;;;;5045701;28;20511;-32
2023/01/04 09:39:34;;;;;;;8.48;1.00;;;;;;;;;;5031748;28;20033;-33
2023/01/04 09:42:05;;;;;;;7.03;1.15;;;;;;;;;;5031634;28;20022;-32
2023/01/04 09:44:41;;;;;;;7.50;1.13;;;;;;;;;;5031695;28;20545;-33
2023/01/04 09:47:14;;;;;;;8.50;1.15;;;;;;;;;;5031738;28;20034;-33
2023/01/04 09:49:40;;;;;;;;;;;;;;;;;;5032188;28;20494;-33
2023/01/04 09:52:27;;;;;;;12.40;1.10;;;;;;;;;;5036900;28;19909;-33
2023/01/04 09:54:57;;;;;;;14.50;1.70;;;;;;;;;;5051475;28;20116;-33
2023/01/04 09:57:30;;;;;;;12.85;1.23;;;;;;;;;;5051461;28;20031;-33
2023/01/04 10:00:02;;;;;;;12.95;1.67;;;;;;;;;;5032090;28;20037;-33
2023/01/04 10:02:52;;;;;;;14.50;1.50;;;;;;;;;;5036012;28;20028;-33
2023/01/04 10:05:21;;;;;;;14.85;1.25;;;;;;;;;;5027655;28;20087;-33
2023/01/04 10:07:48;;;;;;;12.32;1.40;;;;;;;;;;5035505;28;20114;-33
2023/01/04 10:10:17;;;;;;;15.60;1.10;;;;;;;;;;5035470;28;20044;-33
2023/01/04 10:12:59;;;;;;;15.50;1.65;;;;;;;;;;5035175;28;20533;-33
2023/01/04 10:15:30;;;;;;;9.67;1.20;;;;;;;;;;5035140;28;20073;-33
2023/01/04 10:18:10;;;;;;;11.35;1.60;;;;;;;;;;5035631;28;20025;-33
2023/01/04 10:20:52;;;;;;;11.45;1.33;;;;;;;;;;5035394;28;20472;-32
2023/01/04 10:23:26;;;;;;;11.70;1.33;;;;;;;;;;5035173;28;20022;-33
2023/01/04 10:26:02;;;;;;;9.45;1.52;;;;;;;;;;5035099;28;20040;-33
2023/01/04 10:28:29;;;;;;;12.10;1.65;;;;;;;;;;5035013;28;20029;-33
2023/01/04 10:31:05;;;;;;;14.55;1.77;;;;;;;;;;5053185;28;20033;-33
2023/01/04 10:33:32;;;;;;;11.57;1.15;;;;;;;;;;5054740;28;20025;-32
2023/01/04 10:36:00;;;;;;;14.15;1.50;;;;;;;;;;5054926;28;20029;-33
2023/01/04 10:38:35;;;;;;;10.15;1.60;;;;;;;;;;5052650;28;20437;-33
2023/01/04 10:41:07;;;;;;;15.32;1.17;;;;;;;;;;5034738;28;20148;-33
2023/01/04 10:43:44;;;;;;;15.90;1.48;;;;;;;;;;5034741;28;20136;-32
2023/01/04 10:46:18;;;;;;;12.55;1.30;;;;;;;;;;5034801;28;20033;-33
2023/01/04 10:48:57;;;;;;;8.60;1.60;;;;;;;;;;5034727;28;20487;-33
2023/01/04 10:51:31;;;;;;;9.57;1.10;;;;;;;;;;5047487;28;20111;-33
2023/01/04 10:54:02;;;;;;;12.07;1.90;;;;;;;;;;5054392;28;20124;-33
2023/01/04 10:56:51;;;;;;;12.98;1.42;;;;;;;;;;5054595;28;20112;-33
2023/01/04 10:59:25;;;;;;;7.60;1.10;;;;;;;;;;5054412;28;20426;-33
2023/01/04 11:01:52;;;;;;;10.65;1.60;;;;;;;;;;5054279;28;20435;-33
2023/01/04 11:04:22;;;;;;;10.15;1.15;;;;;;;;;;5054299;28;20067;-32
2023/01/04 11:07:12;;;;;;;12.27;1.13;;;;;;;;;;5046267;28;20415;-33
2023/01/04 11:09:45;;;;;;;9.80;1.13;;;;;;;;;;5021936;28;20632;-32
2023/01/04 11:12:14;;;;;;;8.80;1.05;;;;;;;;;;5035479;28;20497;-33
2023/01/04 11:14:42;;;;;;;9.13;1.20;;;;;;;;;;5048991;28;20056;-33
2023/01/04 11:17:10;;;;;;;11.63;1.38;;;;;;;;;;5045831;28;20064;-33
2023/01/04 11:19:37;;;;;;;7.65;1.30;;;;;;;;;;5046900;28;20029;-31
2023/01/04 11:22:24;;;;;;;6.95;1.15;;;;;;;;;;5035358;28;20041;-32
2023/01/04 11:24:54;;;;;;;6.28;1.15;;;;;;;;;;5053287;28;20025;-31
2023/01/04 11:27:25;;;;;;;7.95;1.40;;;;;;;;;;5053912;28;20031;-31
2023/01/04 11:30:02;;;;;;;7.63;1.13;;;;;;;;;;5053722;28;20025;-31
2023/01/04 11:32:29;;;;;;;7.40;0.77;;;;;;;;;;5053662;28;20321;-32
2023/01/04 11:34:56;;;;;;;8.23;1.17;;;;;;;;;;5052446;28;20399;-32
2023/01/04 11:37:28;;;;;;;6.72;0.75;;;;;;;;;;5052016;28;20025;-32
2023/01/04 11:40:12;;;;;;;4.13;0.93;;;;;;;;;;5048804;28;20234;-31
2023/01/04 11:42:39;;;;;;;4.68;1.00;;;;;;;;;;5035604;28;20029;-33
2023/01/04 11:45:06;;;;;;;6.05;0.82;;;;;;;;;;5053638;28;20028;-31
2023/01/04 11:47:33;;;;;;;5.55;0.77;;;;;;;;;;5046840;28;20426;-31
2023/01/04 11:50:00;;;;;;;5.38;0.80;;;;;;;;;;5047408;28;20083;-35
2023/01/04 11:52:27;;;;;;;6.65;0.65;;;;;;;;;;5036550;28;20025;-31
2023/01/04 11:54:54;;;;;;;7.00;0.80;;;;;;;;;;5061923;28;20126;-31
2023/01/04 11:57:21;;;;;;;9.45;1.15;;;;;;;;;;5053336;28;20084;-31
2023/01/04 12:00:08;;;;;;;2.78;0.70;;;;;;;;;;5052923;28;20032;-32
2023/01/04 12:02:35;;;;;;;7.25;1.00;;;;;;;;;;5053052;28;20052;-31
2023/01/04 12:05:02;;;;;;;3.67;0.95;;;;;;;;;;5053133;28;20055;-31
2023/01/04 12:07:30;;;;;;;4.03;0.93;;;;;;;;;;5053119;28;20112;-31
2023/01/04 12:10:03;;;;;;;3.13;0.70;;;;;;;;;;5053120;28;20043;-31
2023/01/04 12:12:31;;;;;;;6.30;1.05;;;;;;;;;;5052981;28;20036;-33
2023/01/04 12:15:03;;;;;;;7.95;1.30;;;;;;;;;;5052777;28;20041;-31
2023/01/04 12:17:56;;;;;;;4.13;0.85;;;;;;;;;;5053027;28;20032;-32
2023/01/04 12:20:24;;;;;;;4.85;1.00;;;;;;;;;;5050292;28;20044;-33
2023/01/04 12:22:51;;;;;;;3.28;0.80;;;;;;;;;;5052813;28;20039;-31
2023/01/04 12:25:24;;;;;;;6.78;1.02;;;;;;;;;;5052106;28;20029;-31
2023/01/04 12:27:54;;;;;;;9.40;1.20;;;;;;;;;;5046637;28;20037;-33
2023/01/04 12:30:43;;;;;;;7.82;0.95;;;;;;;;;;5032820;28;20494;-31
2023/01/04 12:33:28;;;;;;;6.22;1.05;;;;;;;;;;5048938;28;20049;-35
2023/01/04 12:36:00;;;;;;;8.93;0.90;;;;;;;;;;5044952;28;20118;-33
2023/01/04 12:38:45;;;;;;;4.38;0.80;;;;;;;;;;5048896;28;20040;-34
2023/01/04 12:41:12;;;;;;;6.57;0.82;;;;;;;;;;5049854;28;20041;-34
2023/01/04 12:43:38;;;;;;;4.18;0.90;;;;;;;;;;5049583;28;20029;-33
2023/01/04 12:49:28;;;;;;;5.95;1.33;;;;;;;;;;5029675;28;20095;-33
2023/01/04 12:52:08;;;;;;;5.03;1.15;;;;;;;;;;5029186;28;20037;-34
2023/01/04 12:55:04;;;;;;;7.40;0.80;;;;;;;;;;5029393;28;20045;-37
2023/01/04 12:57:32;;;;;;;8.77;1.45;;;;;;;;;;5014584;28;20140;-37
2023/01/04 13:00:00;;;;;;;5.82;1.17;;;;;;;;;;5029676;28;20029;-35
2023/01/04 13:02:28;;;;;;;6.15;1.08;;;;;;;;;;5030468;28;20474;-35
2023/01/04 13:05:00;;;;;;;4.32;1.08;;;;;;;;;;5028456;28;20056;-33
2023/01/04 13:07:40;;;;;;;9.10;1.03;;;;;;;;;;5034327;28;20041;-36
2023/01/04 13:10:20;;;;;;;8.45;1.30;;;;;;;;;;5029349;28;20094;-35
2023/01/04 13:13:07;;;;;;;9.85;1.10;;;;;;;;;;5029622;28;20241;-35
2023/01/04 13:15:46;;;;;;;12.45;1.40;;;;;;;;;;5027922;28;20057;-34
2023/01/04 13:18:36;;;;;;;6.93;1.42;;;;;;;;;;5030609;28;20143;-37
2023/01/04 13:21:14;;;;;;;4.00;0.85;;;;;;;;;;5005767;28;20524;-34
2023/01/04 13:23:46;;;;;;;9.15;1.10;;;;;;;;;;5029674;28;20033;-34
2023/01/04 13:26:33;;;;;;;10.95;1.42;;;;;;;;;;5027350;28;20049;-33
2023/01/04 13:29:18;;;;;;;15.35;2.03;;;;;;;;;;5029133;28;20116;-33
2023/01/04 13:32:02;;;;;;;20.60;2.40;;;;;;;;;;5029433;28;20124;-33
2023/01/04 13:34:33;;;;;;;21.23;2.10;;;;;;;;;;5027361;28;20073;-35
2023/01/04 13:37:02;;;;;;;15.60;1.75;;;;;;;;;;5030873;28;20128;-38
2023/01/04 13:39:30;;;;;;;18.70;2.22;;;;;;;;;;5033124;28;20032;-37
2023/01/04 13:41:57;;;;;;;16.25;2.03;;;;;;;;;;5033060;28;20503;-35
2023/01/04 13:44:33;;;;;;;19.17;2.08;;;;;;;;;;5032426;28;20049;-34
2023/01/04 13:47:00;;;;;;;17.95;1.83;;;;;;;;;;5030238;28;20064;-33
2023/01/04 13:49:27;;;;;;;14.93;2.33;;;;;;;;;;5031660;28;20112;-36
2023/01/04 13:51:55;;;;;;;19.67;2.55;;;;;;;;;;5033496;28;20095;-39
2023/01/04 13:54:23;;;;;;;19.27;2.47;;;;;;;;;;5032353;28;20041;-36
2023/01/04 13:56:53;;;;;;;27.60;3.67;;;;;;;;;;5031339;28;20029;-32
2023/01/04 13:59:20;;;;;;;32.33;3.28;;;;;;;;;;5033643;28;20091;-40
2023/01/04 14:01:47;;;;;;;31.70;3.40;;;;;;;;;;5032509;28;20044;-33
2023/01/04 14:04:22;;;;;;;30.42;3.35;;;;;;;;;;5031920;28;20045;-34
2023/01/04 14:06:50;;;;;;;40.42;3.88;;;;;;;;;;5033142;28;20502;-35
2023/01/04 14:09:20;;;;;;;38.92;4.28;;;;;;;;;;5032769;28;20037;-33
2023/01/04 14:11:58;;;;;;;30.63;4.07;;;;;;;;;;5032864;28;20029;-34
2023/01/04 14:14:25;;;;;;;31.48;3.28;;;;;;;;;;5031651;28;20146;-34
2023/01/04 14:17:04;;;;;;;36.78;3.90;;;;;;;;;;5031327;28;20656;-36
2023/01/04 14:19:34;;;;;;;34.85;4.13;;;;;;;;;;5035034;28;20519;-34
2023/01/04 14:22:01;;;;;;;34.90;3.15;;;;;;;;;;5029887;28;20034;-36
2023/01/04 14:24:31;;;;;;;21.55;2.75;;;;;;;;;;5031271;28;20037;-38
2023/01/04 14:26:58;;;;;;;28.13;3.10;;;;;;;;;;5033145;28;20041;-36
2023/01/04 14:29:32;;;;;;;22.15;2.10;;;;;;;;;;5033633;28;20044;-36
2023/01/04 14:32:02;;;;;;;19.73;2.35;;;;;;;;;;5031138;28;20091;-38
2023/01/04 14:34:29;;;;;;;26.67;2.30;;;;;;;;;;5044247;28;20036;-36
2023/01/04 14:37:02;;;;;;;20.70;2.45;;;;;;;;;;5060599;28;20025;-43
2023/01/04 14:39:32;;;;;;;23.10;2.88;;;;;;;;;;5029327;28;20636;-37
2023/01/04 14:42:00;;;;;;;27.10;2.97;;;;;;;;;;5030416;28;20462;-38
2023/01/04 14:44:29;;;;;;;28.55;3.05;;;;;;;;;;5035194;28;20075;-38
2023/01/04 14:46:57;;;;;;;31.33;3.47;;;;;;;;;;5026503;28;20032;-45
2023/01/04 14:49:28;;;;;;;34.67;3.22;;;;;;;;;;5031159;28;20030;-36
2023/01/04 14:51:56;;;;;;;35.60;3.58;;;;;;;;;;5032055;28;20446;-35
2023/01/04 14:54:24;;;;;;;28.35;3.15;;;;;;;;;;5033319;28;20029;-36
2023/01/04 14:57:10;;;;;;;31.50;2.70;;;;;;;;;;5033738;28;20531;-39
2023/01/04 14:59:37;;;;;;;27.63;3.28;;;;;;;;;;5028469;28;20083;-36
2023/01/04 15:02:04;;;;;;;23.38;2.50;;;;;;;;;;5031798;28;20115;-34
2023/01/04 15:04:31;;;;;;;27.45;2.60;;;;;;;;;;5032130;28;20071;-36
2023/01/04 15:06:59;;;;;;;40.42;3.42;;;;;;;;;;5030290;28;20028;-36
2023/01/04 15:09:26;;;;;;;21.73;3.28;;;;;;;;;;5032726;28;20539;-36
2023/01/04 15:11:53;;;;;;;28.23;2.78;;;;;;;;;;5033100;28;20039;-32
2023/01/04 15:14:20;;;;;;;37.50;3.88;;;;;;;;;;5031272;28;20119;-32
2023/01/04 15:16:47;;;;;;;26.77;3.15;;;;;;;;;;5032487;28;20086;-40
2023/01/04 15:19:14;;;;;;;34.00;3.00;;;;;;;;;;5031519;28;20041;-34
2023/01/04 15:21:41;;;;;;;31.83;3.60;;;;;;;;;;5032547;28;20037;-35
2023/01/04 15:24:09;;;;;;;34.38;4.82;;;;;;;;;;5021430;28;20414;-36
2023/01/04 15:26:36;;;;;;;28.15;3.53;;;;;;;;;;5031485;28;20032;-36
2023/01/04 15:29:05;;;;;;;40.97;3.72;;;;;;;;;;5056909;28;20159;-34
2023/01/04 15:31:32;;;;;;;27.55;3.53;;;;;;;;;;5069675;28;20122;-35
2023/01/04 15:33:59;;;;;;;38.28;4.05;;;;;;;;;;5045253;28;20029;-35
2023/01/04 15:36:26;;;;;;;25.70;3.50;;;;;;;;;;5027822;28;20441;-36